createdAt,value
2024-02-14T00:01:40.190Z,6.80
2024-02-14T00:04:08.752Z,6.80
2024-02-14T00:06:38.305Z,6.70
2024-02-14T00:09:07.766Z,6.70
2024-02-14T00:11:35.867Z,6.70
2024-02-14T00:14:05.210Z,6.70
2024-02-14T00:16:33.159Z,6.70
2024-02-14T00:19:01.392Z,6.70
2024-02-14T00:21:29.398Z,6.70
2024-02-14T00:23:59.263Z,6.70
2024-02-14T00:26:27.875Z,6.70
2024-02-14T00:28:55.852Z,6.70
2024-02-14T00:31:25.196Z,6.60
2024-02-14T00:33:53.436Z,6.60
2024-02-14T00:36:21.534Z,6.60
2024-02-14T00:38:49.510Z,6.60
2024-02-14T00:41:17.517Z,6.60
2024-02-14T00:43:45.452Z,6.50
2024-02-14T00:46:18.493Z,6.50
2024-02-14T00:48:48.028Z,6.50
2024-02-14T00:51:16.113Z,6.50
2024-02-14T00:53:44.245Z,6.50
2024-02-14T00:56:12.244Z,6.50
2024-02-14T00:58:40.273Z,6.50
2024-02-14T01:01:08.252Z,6.50
2024-02-14T01:03:36.222Z,6.50
2024-02-14T01:06:05.847Z,6.50
2024-02-14T01:08:34.858Z,6.50
2024-02-14T01:11:02.879Z,6.40
2024-02-14T01:13:30.902Z,6.50
2024-02-14T01:15:58.861Z,6.40
2024-02-14T01:18:27.049Z,6.40
2024-02-14T01:20:55.452Z,6.40
2024-02-14T01:23:24.800Z,6.40
2024-02-14T01:25:52.922Z,6.40
2024-02-14T01:28:20.825Z,6.40
2024-02-14T01:30:48.758Z,6.40
2024-02-14T01:33:17.853Z,6.40
2024-02-14T01:35:45.945Z,6.40
2024-02-14T01:38:14.315Z,6.40
2024-02-14T01:40:46.444Z,6.40
2024-02-14T01:43:15.526Z,6.30
2024-02-14T01:45:44.158Z,6.30
2024-02-14T01:48:12.345Z,6.30
2024-02-14T01:50:41.963Z,6.30
2024-02-14T01:53:10.230Z,6.20
2024-02-14T01:55:38.201Z,6.20
2024-02-14T01:58:07.614Z,6.20
2024-02-14T02:00:37.052Z,6.20
2024-02-14T02:03:05.364Z,6.20
2024-02-14T02:05:35.259Z,6.20
2024-02-14T02:08:03.759Z,6.20
2024-02-14T02:10:31.802Z,6.20
2024-02-14T02:13:02.573Z,6.10
2024-02-14T02:15:31.989Z,6.10
2024-02-14T02:18:00.991Z,6.10
2024-02-14T02:20:29.780Z,6.10
2024-02-14T02:22:59.176Z,6.10
2024-02-14T02:25:27.799Z,6.10
2024-02-14T02:27:58.811Z,6.10
2024-02-14T02:30:28.305Z,6.00
2024-02-14T02:32:57.130Z,6.00
2024-02-14T02:35:25.571Z,6.10
2024-02-14T02:37:53.605Z,6.10
2024-02-14T02:40:23.400Z,6.00
2024-02-14T02:42:51.989Z,6.10
2024-02-14T02:45:19.997Z,6.00
2024-02-14T02:47:49.069Z,6.00
2024-02-14T02:50:17.342Z,6.00
2024-02-14T02:52:45.264Z,6.00
2024-02-14T02:55:13.412Z,6.00
2024-02-14T02:57:44.921Z,6.00
2024-02-14T03:00:15.070Z,6.00
2024-02-14T03:02:45.510Z,6.00
2024-02-14T03:05:19.233Z,6.00
2024-02-14T03:07:49.200Z,5.90
2024-02-14T03:10:19.327Z,5.90
2024-02-14T03:12:49.435Z,5.90
2024-02-14T03:15:18.235Z,5.90
2024-02-14T03:17:46.803Z,5.90
2024-02-14T03:20:18.757Z,5.90
2024-02-14T03:22:48.251Z,5.90
2024-02-14T03:25:19.194Z,5.90
2024-02-14T03:27:48.475Z,5.90
2024-02-14T03:30:19.243Z,5.90
2024-02-14T03:32:48.078Z,5.90
2024-02-14T03:35:16.487Z,5.90
2024-02-14T03:37:48.710Z,5.90
2024-02-14T03:40:17.659Z,5.90
2024-02-14T03:42:45.708Z,5.90
2024-02-14T03:45:13.903Z,5.90
2024-02-14T03:47:43.529Z,5.90
2024-02-14T03:50:11.950Z,5.90
2024-02-14T03:52:39.917Z,5.90
2024-02-14T03:55:10.022Z,5.90
2024-02-14T03:57:39.780Z,5.90
2024-02-14T04:00:11.580Z,5.90
2024-02-14T04:02:41.358Z,5.90
2024-02-14T04:05:15.703Z,5.80
2024-02-14T04:07:46.045Z,5.80
2024-02-14T04:10:14.852Z,5.80
2024-02-14T04:12:42.825Z,5.80
2024-02-14T04:15:11.541Z,5.80
2024-02-14T04:17:39.538Z,5.80
2024-02-14T04:20:08.623Z,5.80
2024-02-14T04:22:37.896Z,5.80
2024-02-14T04:25:06.636Z,5.70
2024-02-14T04:27:34.605Z,5.70
2024-02-14T04:30:03.514Z,5.80
2024-02-14T04:32:31.709Z,5.70
2024-02-14T04:35:00.872Z,5.70
2024-02-14T04:37:29.060Z,5.70
2024-02-14T04:39:58.426Z,5.70
2024-02-14T04:42:26.404Z,5.70
2024-02-14T04:44:54.457Z,5.70
2024-02-14T04:47:23.078Z,5.70
2024-02-14T04:49:52.583Z,5.70
2024-02-14T04:52:20.580Z,5.70
2024-02-14T04:54:48.519Z,5.70
2024-02-14T04:57:19.827Z,5.70
2024-02-14T04:59:47.864Z,5.70
2024-02-14T05:02:15.934Z,5.70
2024-02-14T05:04:43.874Z,5.70
2024-02-14T05:07:11.892Z,5.70
2024-02-14T05:09:39.920Z,5.70
2024-02-14T05:12:11.837Z,5.70
2024-02-14T05:14:41.889Z,5.70
2024-02-14T05:17:10.111Z,5.70
2024-02-14T05:19:38.070Z,5.70
2024-02-14T05:22:06.218Z,5.70
2024-02-14T05:24:34.259Z,5.70
2024-02-14T05:27:02.198Z,5.70
2024-02-14T05:29:30.159Z,5.70
2024-02-14T05:31:59.518Z,5.70
2024-02-14T05:34:27.532Z,5.70
2024-02-14T05:36:55.525Z,5.70
2024-02-14T05:39:23.539Z,5.70
2024-02-14T05:41:51.537Z,5.70
2024-02-14T05:44:19.564Z,5.70
2024-02-14T05:46:47.516Z,5.70
2024-02-14T05:49:17.064Z,5.70
2024-02-14T05:51:45.031Z,5.80
2024-02-14T05:54:13.016Z,5.80
2024-02-14T05:56:41.211Z,5.80
2024-02-14T05:59:09.631Z,5.80
2024-02-14T06:01:37.653Z,5.80
2024-02-14T06:04:05.924Z,5.80
2024-02-14T06:06:35.334Z,5.80
2024-02-14T06:09:10.210Z,5.80
2024-02-14T06:11:40.110Z,5.80
2024-02-14T06:14:08.207Z,5.80
2024-02-14T06:16:36.180Z,5.90
2024-02-14T06:19:05.646Z,5.90
2024-02-14T06:21:35.197Z,5.90
2024-02-14T06:24:04.898Z,5.90
2024-02-14T06:26:34.311Z,5.90
2024-02-14T06:29:05.245Z,5.90
2024-02-14T06:31:34.414Z,5.90
2024-02-14T06:34:02.590Z,6.00
2024-02-14T06:36:30.816Z,6.00
2024-02-14T06:39:00.157Z,6.00
2024-02-14T06:41:28.155Z,6.00
2024-02-14T06:43:56.107Z,6.00
2024-02-14T06:46:24.064Z,6.00
2024-02-14T06:48:52.252Z,6.00
2024-02-14T06:51:21.354Z,6.10
2024-02-14T06:53:49.320Z,6.10
2024-02-14T06:56:18.697Z,6.10
2024-02-14T06:58:47.350Z,6.10
2024-02-14T07:01:16.436Z,6.10
2024-02-14T07:03:46.197Z,6.10
2024-02-14T07:06:14.224Z,6.20
2024-02-14T07:08:43.071Z,6.20
2024-02-14T07:11:11.064Z,6.20
2024-02-14T07:13:40.360Z,6.20
2024-02-14T07:16:11.786Z,6.20
2024-02-14T07:18:40.335Z,6.20
2024-02-14T07:21:08.714Z,6.20
2024-02-14T07:23:36.856Z,6.20
2024-02-14T07:26:03.951Z,6.20
2024-02-14T07:28:33.318Z,6.30
2024-02-14T07:31:02.700Z,6.30
2024-02-14T07:33:30.665Z,6.30
2024-02-14T07:35:58.814Z,6.30
2024-02-14T07:38:26.769Z,6.30
2024-02-14T07:40:54.751Z,6.30
2024-02-14T07:43:22.726Z,6.30
2024-02-14T07:45:51.208Z,6.30
2024-02-14T07:48:20.727Z,6.40
2024-02-14T07:50:48.708Z,6.30
2024-02-14T07:53:16.930Z,6.40
2024-02-14T07:55:44.905Z,6.40
2024-02-14T07:58:13.861Z,6.40
2024-02-14T08:00:41.931Z,6.40
2024-02-14T08:03:10.033Z,6.40
2024-02-14T08:05:39.428Z,6.40
2024-02-14T08:08:07.706Z,6.50
2024-02-14T08:10:35.702Z,6.50
2024-02-14T08:13:05.488Z,6.50
2024-02-14T08:15:33.438Z,6.60
2024-02-14T08:18:03.845Z,6.60
2024-02-14T08:20:39.068Z,6.60
2024-02-14T08:23:07.079Z,6.60
2024-02-14T08:25:34.990Z,6.60
2024-02-14T08:28:03.812Z,6.60
2024-02-14T08:30:32.244Z,6.60
2024-02-14T08:33:00.458Z,6.70
2024-02-14T08:35:31.189Z,6.70
2024-02-14T08:38:00.553Z,6.70
2024-02-14T08:40:28.724Z,6.70
2024-02-14T08:42:56.677Z,6.70
2024-02-14T08:45:25.089Z,6.80
2024-02-14T08:47:53.092Z,6.80
2024-02-14T08:50:21.052Z,6.80
2024-02-14T08:52:49.052Z,6.80
2024-02-14T08:55:19.709Z,6.90
2024-02-14T08:57:48.961Z,6.90
2024-02-14T09:00:21.016Z,6.90
2024-02-14T09:02:49.823Z,6.90
2024-02-14T09:05:19.864Z,7.00
2024-02-14T09:07:47.834Z,7.00
2024-02-14T09:10:16.308Z,7.10
2024-02-14T09:12:45.627Z,7.10
2024-02-14T09:15:13.928Z,7.10
2024-02-14T09:17:42.902Z,7.20
2024-02-14T09:20:12.237Z,7.20
2024-02-14T09:22:42.245Z,7.20
2024-02-14T09:25:11.068Z,7.30
2024-02-14T09:27:39.513Z,7.30
2024-02-14T09:30:13.805Z,7.30
2024-02-14T09:32:46.637Z,7.30
2024-02-14T09:35:14.728Z,7.40
2024-02-14T09:37:42.700Z,7.40
2024-02-14T09:40:14.007Z,7.40
2024-02-14T09:42:46.860Z,7.50
2024-02-14T09:45:20.612Z,7.50
2024-02-14T09:47:51.708Z,7.60
2024-02-14T09:50:21.223Z,7.60
2024-02-14T09:52:50.556Z,7.60
2024-02-14T09:55:19.084Z,7.60
2024-02-14T09:57:48.927Z,7.70
2024-02-14T10:00:19.250Z,7.70
2024-02-14T10:02:47.269Z,7.80
2024-02-14T10:05:15.294Z,7.90
2024-02-14T10:07:43.851Z,7.90
2024-02-14T10:10:12.979Z,7.90
2024-02-14T10:12:42.184Z,8.00
2024-02-14T10:15:11.379Z,8.00
2024-02-14T10:17:43.049Z,8.10
2024-02-14T10:20:12.367Z,8.10
2024-02-14T10:22:41.937Z,8.20
2024-02-14T10:25:10.818Z,8.20
2024-02-14T10:27:39.850Z,8.30
2024-02-14T10:30:10.813Z,8.40
2024-02-14T10:32:39.539Z,8.40
2024-02-14T10:35:12.652Z,8.50
2024-02-14T10:37:41.140Z,8.60
2024-02-14T10:40:10.978Z,8.60
2024-02-14T10:42:39.062Z,8.60
2024-02-14T10:45:08.287Z,8.70
2024-02-14T10:47:37.751Z,8.70
2024-02-14T10:50:10.620Z,8.70
2024-02-14T10:52:41.104Z,8.80
2024-02-14T10:55:12.453Z,8.90
2024-02-14T10:57:40.897Z,9.00
2024-02-14T11:00:14.639Z,9.00
2024-02-14T11:02:43.868Z,9.00
2024-02-14T11:05:16.761Z,9.00
2024-02-14T11:07:48.217Z,9.10
2024-02-14T11:10:17.770Z,9.10
2024-02-14T11:12:46.689Z,9.10
2024-02-14T11:15:19.692Z,9.20
2024-02-14T11:17:50.059Z,9.20
2024-02-14T11:20:21.501Z,9.30
2024-02-14T11:22:55.217Z,9.30
2024-02-14T11:25:30.698Z,9.30
2024-02-14T11:27:59.184Z,9.40
2024-02-14T11:30:33.924Z,9.40
2024-02-14T11:33:21.590Z,9.40
2024-02-14T11:35:52.804Z,9.40
2024-02-14T11:38:21.222Z,9.50
2024-02-14T11:40:50.197Z,9.50
2024-02-14T11:43:19.829Z,9.50
2024-02-14T11:45:50.549Z,9.60
2024-02-14T11:48:20.631Z,9.60
2024-02-14T11:50:50.086Z,9.60
2024-02-14T11:53:19.975Z,9.70
2024-02-14T11:55:48.941Z,9.80
2024-02-14T11:58:18.538Z,9.80
2024-02-14T12:00:48.506Z,9.90
2024-02-14T12:03:19.024Z,9.90
2024-02-14T12:05:49.495Z,9.90
2024-02-14T12:08:20.158Z,10.00
2024-02-14T12:10:51.258Z,10.00
2024-02-14T12:13:22.080Z,10.00
2024-02-14T12:15:51.603Z,10.10
2024-02-14T12:18:21.726Z,10.10
2024-02-14T12:20:55.484Z,10.10
2024-02-14T12:23:28.196Z,10.10
2024-02-14T12:25:56.319Z,10.20
2024-02-14T12:28:25.521Z,10.20
2024-02-14T12:30:57.447Z,10.20
2024-02-14T12:33:26.548Z,10.20
2024-02-14T12:35:57.599Z,10.30
2024-02-14T12:38:27.114Z,10.30
2024-02-14T12:40:55.925Z,10.40
2024-02-14T12:43:23.959Z,10.40
2024-02-14T12:45:52.012Z,10.40
2024-02-14T12:48:27.717Z,10.40
2024-02-14T12:50:56.636Z,10.40
2024-02-14T12:53:26.456Z,10.50
2024-02-14T12:55:54.668Z,10.50
2024-02-14T12:58:22.672Z,10.60
2024-02-14T13:00:50.908Z,10.60
2024-02-14T13:03:19.562Z,10.60
2024-02-14T13:05:48.605Z,10.60
2024-02-14T13:08:17.799Z,10.60
2024-02-14T13:10:47.991Z,10.60
2024-02-14T13:13:16.345Z,10.60
2024-02-14T13:15:45.915Z,10.60
2024-02-14T13:18:14.310Z,10.60
2024-02-14T13:20:43.342Z,10.70
2024-02-14T13:23:11.839Z,10.70
2024-02-14T13:25:40.542Z,10.70
2024-02-14T13:28:10.309Z,10.70
2024-02-14T13:30:39.205Z,10.70
2024-02-14T13:33:07.626Z,10.70
2024-02-14T13:35:39.123Z,10.70
2024-02-14T13:38:07.763Z,10.80
2024-02-14T13:40:35.912Z,10.80
2024-02-14T13:43:04.185Z,10.80
2024-02-14T13:45:46.362Z,10.80
2024-02-14T13:48:14.902Z,10.80
2024-02-14T13:50:44.058Z,10.90
2024-02-14T13:53:12.402Z,10.90
2024-02-14T13:55:40.668Z,10.90
2024-02-14T13:58:14.938Z,10.90
2024-02-14T14:00:44.709Z,10.90
2024-02-14T14:03:13.228Z,10.90
2024-02-14T14:05:41.611Z,10.90
2024-02-14T14:08:09.724Z,10.90
2024-02-14T14:10:37.774Z,10.90
2024-02-14T14:13:06.051Z,10.90
2024-02-14T14:15:34.408Z,10.90
2024-02-14T14:18:04.013Z,10.90
2024-02-14T14:20:32.753Z,10.90
2024-02-14T14:23:01.204Z,10.90
2024-02-14T14:25:30.357Z,10.90
2024-02-14T14:27:59.730Z,10.90
2024-02-14T14:30:27.841Z,10.90
2024-02-14T14:32:55.942Z,10.90
2024-02-14T14:35:25.494Z,10.90
2024-02-14T14:37:55.350Z,10.90
2024-02-14T14:40:23.906Z,10.90
2024-02-14T14:42:51.868Z,10.90
2024-02-14T14:45:19.876Z,10.90
2024-02-14T14:47:47.960Z,10.90
2024-02-14T14:50:17.392Z,10.90
2024-02-14T14:52:47.103Z,10.90
2024-02-14T14:55:20.852Z,10.90
2024-02-14T14:57:49.063Z,10.80
2024-02-14T15:00:17.986Z,10.80
2024-02-14T15:02:46.295Z,10.80
2024-02-14T15:05:15.089Z,10.80
2024-02-14T15:07:43.273Z,10.80
2024-02-14T15:10:13.625Z,10.80
2024-02-14T15:12:41.644Z,10.80
2024-02-14T15:15:11.834Z,10.80
2024-02-14T15:17:41.462Z,10.80
2024-02-14T15:20:10.484Z,10.80
2024-02-14T15:22:38.508Z,10.80
2024-02-14T15:25:07.252Z,10.80
2024-02-14T15:27:41.411Z,10.80
2024-02-14T15:30:33.603Z,10.80
2024-02-14T15:33:19.535Z,10.80
2024-02-14T15:35:47.805Z,10.80
2024-02-14T15:38:17.008Z,10.80
2024-02-14T15:40:45.036Z,10.80
2024-02-14T15:43:14.461Z,10.80
2024-02-14T15:45:42.876Z,10.80
2024-02-14T15:48:11.173Z,10.80
2024-02-14T15:50:39.436Z,10.80
2024-02-14T15:53:07.858Z,10.80
2024-02-14T15:55:36.021Z,10.80
2024-02-14T15:58:04.402Z,10.80
2024-02-14T16:00:34.042Z,10.80
2024-02-14T16:03:02.372Z,10.80
2024-02-14T16:05:31.068Z,10.80
2024-02-14T16:07:59.389Z,10.90
2024-02-14T16:10:27.371Z,10.90
2024-02-14T16:12:55.292Z,10.80
2024-02-14T16:15:23.317Z,10.80
2024-02-14T16:17:52.965Z,10.80
2024-02-14T16:20:22.940Z,10.80
2024-02-14T16:22:51.726Z,10.80
2024-02-14T16:25:21.052Z,10.80
2024-02-14T16:27:49.114Z,10.80
2024-02-14T16:30:17.633Z,10.80
2024-02-14T16:32:47.447Z,10.80
2024-02-14T16:35:16.967Z,10.80
2024-02-14T16:37:44.990Z,10.80
2024-02-14T16:40:14.227Z,10.80
2024-02-14T16:42:42.343Z,10.80
2024-02-14T16:45:10.821Z,10.80
2024-02-14T16:47:39.034Z,10.80
2024-02-14T16:50:09.038Z,10.80
2024-02-14T16:52:38.384Z,10.80
2024-02-14T16:55:07.033Z,10.80
2024-02-14T16:57:35.109Z,10.80
2024-02-14T17:00:05.070Z,10.90
2024-02-14T17:02:33.289Z,10.80
2024-02-14T17:05:01.632Z,10.80
2024-02-14T17:07:29.851Z,10.80
2024-02-14T17:09:59.995Z,10.80
2024-02-14T17:12:28.905Z,10.90
2024-02-14T17:14:57.587Z,10.80
2024-02-14T17:17:25.977Z,10.90
2024-02-14T17:19:54.004Z,10.80
2024-02-14T17:22:27.732Z,10.80
2024-02-14T17:25:01.230Z,10.80
2024-02-14T17:27:29.485Z,10.80
2024-02-14T17:29:57.547Z,10.80
2024-02-14T17:32:32.420Z,10.80
2024-02-14T17:35:08.429Z,10.80
2024-02-14T17:37:38.684Z,10.90
2024-02-14T17:40:10.036Z,10.90
2024-02-14T17:42:38.271Z,10.90
2024-02-14T17:45:08.256Z,10.90
2024-02-14T17:47:37.371Z,10.90
2024-02-14T17:50:06.602Z,10.90
2024-02-14T17:52:35.316Z,10.80
2024-02-14T17:55:04.706Z,10.80
2024-02-14T17:57:34.493Z,10.80
2024-02-14T18:00:02.938Z,10.80
2024-02-14T18:02:31.126Z,10.80
2024-02-14T18:05:00.183Z,10.80
2024-02-14T18:07:28.444Z,10.80
2024-02-14T18:09:56.542Z,10.80
2024-02-14T18:12:26.700Z,10.80
2024-02-14T18:14:57.332Z,10.80
2024-02-14T18:17:25.328Z,10.80
2024-02-14T18:19:53.343Z,10.90
2024-02-14T18:22:21.291Z,10.90
2024-02-14T18:24:49.601Z,10.90
2024-02-14T18:27:17.691Z,10.90
2024-02-14T18:29:45.668Z,10.90
2024-02-14T18:32:15.273Z,10.90
2024-02-14T18:34:43.305Z,10.90
2024-02-14T18:37:11.982Z,10.90
2024-02-14T18:39:41.148Z,10.80
2024-02-14T18:42:09.190Z,10.80
2024-02-14T18:44:37.174Z,10.80
2024-02-14T18:47:05.467Z,10.80
2024-02-14T18:49:35.178Z,10.80
2024-02-14T18:52:03.740Z,10.80
2024-02-14T18:54:33.831Z,10.80
2024-02-14T18:57:04.650Z,10.90
2024-02-14T18:59:35.507Z,10.90
2024-02-14T19:02:04.963Z,10.80
2024-02-14T19:04:34.874Z,10.80
2024-02-14T19:07:02.907Z,10.80
2024-02-14T19:09:32.821Z,10.80
2024-02-14T19:12:01.064Z,10.80
2024-02-14T19:14:29.065Z,10.80
2024-02-14T19:16:57.320Z,10.80
2024-02-14T19:19:26.698Z,10.80
2024-02-14T19:21:56.242Z,10.90
2024-02-14T19:24:24.225Z,10.90
2024-02-14T19:26:52.460Z,10.90
2024-02-14T19:29:22.156Z,10.90
2024-02-14T19:31:50.159Z,10.90
2024-02-14T19:34:18.322Z,10.90
2024-02-14T19:36:46.845Z,10.90
2024-02-14T19:39:17.253Z,10.90
2024-02-14T19:41:46.217Z,10.90
2024-02-14T19:44:14.265Z,10.90
2024-02-14T19:46:42.837Z,10.90
2024-02-14T19:49:14.817Z,10.90
2024-02-14T19:51:43.119Z,10.90
2024-02-14T19:54:11.958Z,10.90
2024-02-14T19:56:41.697Z,10.90
2024-02-14T19:59:09.901Z,10.90
2024-02-14T20:01:37.984Z,10.90
2024-02-14T20:04:07.989Z,10.90
2024-02-14T20:06:36.267Z,10.90
2024-02-14T20:09:04.700Z,11.00
2024-02-14T20:11:32.735Z,11.00
2024-02-14T20:14:02.299Z,10.90
2024-02-14T20:16:32.760Z,10.90
2024-02-14T20:19:01.109Z,10.90
2024-02-14T20:21:29.818Z,10.90
2024-02-14T20:23:58.910Z,10.90
2024-02-14T20:26:34.051Z,10.90
2024-02-14T20:29:03.517Z,10.90
2024-02-14T20:31:32.423Z,11.00
2024-02-14T20:34:03.021Z,10.90
2024-02-14T20:36:31.070Z,10.90
2024-02-14T20:39:00.884Z,10.90
2024-02-14T20:41:31.154Z,10.90
2024-02-14T20:43:59.419Z,10.90
2024-02-14T20:46:28.832Z,10.90
2024-02-14T20:48:57.009Z,10.90
2024-02-14T20:51:25.847Z,10.90
2024-02-14T20:53:54.114Z,10.90
2024-02-14T20:56:23.718Z,10.90
2024-02-14T20:58:57.582Z,10.90
2024-02-14T21:01:35.052Z,10.90
2024-02-14T21:04:03.109Z,10.90
2024-02-14T21:06:31.281Z,10.90
2024-02-14T21:08:59.374Z,10.90
2024-02-14T21:11:28.607Z,10.90
2024-02-14T21:13:56.597Z,10.90
2024-02-14T21:16:25.509Z,10.90
2024-02-14T21:18:55.808Z,10.90
2024-02-14T21:21:23.919Z,10.90
2024-02-14T21:23:52.096Z,11.00
2024-02-14T21:26:20.256Z,10.90
2024-02-14T21:28:48.243Z,11.00
2024-02-14T21:31:16.215Z,11.00
2024-02-14T21:33:45.145Z,11.00
2024-02-14T21:36:15.563Z,11.00
2024-02-14T21:38:43.826Z,11.00
2024-02-14T21:41:11.818Z,11.00
2024-02-14T21:43:39.824Z,11.00
2024-02-14T21:46:07.937Z,11.00
2024-02-14T21:48:36.741Z,11.00
2024-02-14T21:51:10.337Z,11.00
2024-02-14T21:53:39.888Z,11.00
2024-02-14T21:56:08.073Z,11.00
2024-02-14T21:58:36.359Z,11.00
2024-02-14T22:01:04.458Z,11.00
2024-02-14T22:03:33.197Z,11.00
2024-02-14T22:06:01.665Z,11.00
2024-02-14T22:08:30.133Z,11.00
2024-02-14T22:10:59.639Z,11.10
2024-02-14T22:13:27.661Z,11.10
2024-02-14T22:15:55.817Z,11.10
2024-02-14T22:18:25.057Z,11.10
2024-02-14T22:20:53.990Z,11.10
2024-02-14T22:23:22.160Z,11.10
2024-02-14T22:25:50.153Z,11.10
2024-02-14T22:28:19.963Z,11.10
2024-02-14T22:30:48.012Z,11.10
2024-02-14T22:33:16.437Z,11.10
2024-02-14T22:35:44.695Z,11.10
2024-02-14T22:38:14.277Z,11.10
2024-02-14T22:40:42.422Z,11.10
2024-02-14T22:43:10.445Z,11.10
2024-02-14T22:45:41.167Z,11.10
2024-02-14T22:48:09.538Z,11.10
2024-02-14T22:50:37.726Z,11.10
2024-02-14T22:53:05.953Z,11.10
2024-02-14T22:55:33.959Z,11.10
2024-02-14T22:58:02.539Z,11.10
2024-02-14T23:00:30.543Z,11.10
2024-02-14T23:02:59.876Z,11.10
2024-02-14T23:05:28.448Z,11.20
2024-02-14T23:07:59.063Z,11.20
2024-02-14T23:10:27.035Z,11.20
2024-02-14T23:12:54.983Z,11.20
2024-02-14T23:15:23.025Z,11.20
2024-02-14T23:17:51.758Z,11.10
2024-02-14T23:20:21.311Z,11.10
2024-02-14T23:22:49.475Z,11.10
2024-02-14T23:25:17.480Z,11.10
2024-02-14T23:27:46.593Z,11.10
2024-02-14T23:30:15.234Z,11.10
2024-02-14T23:32:43.955Z,11.10
2024-02-14T23:35:12.716Z,11.10
2024-02-14T23:37:42.532Z,11.10
2024-02-14T23:40:12.916Z,11.10
2024-02-14T23:42:42.863Z,11.10
2024-02-14T23:45:12.526Z,11.10
2024-02-14T23:47:41.101Z,11.10
2024-02-14T23:50:11.436Z,11.20
2024-02-14T23:52:41.506Z,11.20
2024-02-14T23:55:10.700Z,11.20
2024-02-14T23:57:38.734Z,11.20
